createdAt,value
2019-03-21T00:01:27.204Z,102951.05
2019-03-21T00:04:01.311Z,102948.87
2019-03-21T00:06:31.913Z,102952.90
2019-03-21T00:09:02.448Z,102954.72
2019-03-21T00:12:02.602Z,102956.89
2019-03-21T00:14:56.179Z,102952.49
2019-03-21T00:17:29.507Z,102953.22
2019-03-21T00:19:59.995Z,102952.27
2019-03-21T00:22:30.498Z,102949.28
2019-03-21T00:25:00.937Z,102949.45
2019-03-21T00:27:31.787Z,102956.59
2019-03-21T00:30:02.285Z,102954.91
2019-03-21T00:32:32.754Z,102953.34
2019-03-21T00:35:03.212Z,102960.36
2019-03-21T00:37:33.731Z,102959.00
2019-03-21T00:40:04.493Z,102961.48
2019-03-21T00:42:34.942Z,102960.98
2019-03-21T00:45:06.175Z,102964.42
2019-03-21T00:47:36.780Z,102964.38
2019-03-21T00:50:08.364Z,102964.42
2019-03-21T00:52:38.861Z,102964.92
2019-03-21T00:55:10.555Z,102961.98
2019-03-21T00:57:41.037Z,102959.86
2019-03-21T01:00:16.144Z,102956.55
2019-03-21T01:02:46.617Z,102962.72
2019-03-21T01:16:41.885Z,102955.12
2019-03-21T01:19:12.353Z,102957.05
2019-03-21T01:21:43.326Z,102951.48
2019-03-21T01:24:13.755Z,102949.31
2019-03-21T01:26:44.414Z,102949.36
2019-03-21T01:29:15.144Z,102949.45
2019-03-21T01:31:45.627Z,102949.00
2019-03-21T01:34:16.369Z,102950.31
2019-03-21T01:36:47.244Z,102954.26
2019-03-21T01:39:17.794Z,102952.08
2019-03-21T01:41:48.364Z,102949.05
2019-03-21T01:44:18.828Z,102940.77
2019-03-21T01:46:49.294Z,102943.84
2019-03-21T01:49:19.751Z,102946.23
2019-03-21T01:51:50.209Z,102948.09
2019-03-21T01:54:20.723Z,102948.64
2019-03-21T01:56:51.490Z,102942.73
2019-03-21T01:59:21.837Z,102942.88
2019-03-21T02:01:52.333Z,102939.93
2019-03-21T02:04:22.860Z,102941.33
2019-03-21T02:06:53.478Z,102937.97
2019-03-21T02:09:23.975Z,102942.00
2019-03-21T02:11:54.381Z,102941.63
2019-03-21T02:14:24.861Z,102936.97
2019-03-21T02:16:55.348Z,102934.05
2019-03-21T02:19:25.841Z,102936.63
2019-03-21T02:21:56.236Z,102931.72
2019-03-21T02:24:26.681Z,102925.27
2019-03-21T02:26:58.271Z,102924.55
2019-03-21T02:29:30.011Z,102924.72
2019-03-21T02:32:00.425Z,102937.19
2019-03-21T02:34:30.831Z,102930.30
2019-03-21T02:37:01.353Z,102930.17
2019-03-21T02:39:32.172Z,102933.05
2019-03-21T02:42:03.040Z,102925.04
2019-03-21T02:44:33.625Z,102934.09
2019-03-21T02:47:04.290Z,102931.38
2019-03-21T02:49:34.689Z,102929.09
2019-03-21T02:52:05.447Z,102927.73
2019-03-21T02:54:35.882Z,102922.03
2019-03-21T02:57:06.349Z,102926.88
2019-03-21T02:59:36.871Z,102928.19
2019-03-21T03:02:07.377Z,102922.98
2019-03-21T03:04:37.911Z,102920.56
2019-03-21T03:07:09.027Z,102917.62
2019-03-21T03:09:39.672Z,102918.48
2019-03-21T03:12:10.166Z,102916.76
2019-03-21T03:14:40.613Z,102925.94
2019-03-21T03:17:11.146Z,102923.31
2019-03-21T03:19:41.758Z,102931.56
2019-03-21T03:22:13.298Z,102930.25
2019-03-21T03:24:44.184Z,102926.77
2019-03-21T03:27:14.748Z,102924.22
2019-03-21T03:29:45.142Z,102918.97
2019-03-21T03:32:15.995Z,102919.88
2019-03-21T03:34:46.952Z,102929.52
2019-03-21T03:37:18.616Z,102927.50
2019-03-21T03:39:49.547Z,102934.93
2019-03-21T03:42:20.159Z,102937.77
2019-03-21T03:44:50.613Z,102931.20
2019-03-21T03:47:21.491Z,102926.36
2019-03-21T03:49:51.984Z,102932.34
2019-03-21T03:52:22.386Z,102936.58
2019-03-21T03:54:53.307Z,102937.39
2019-03-21T03:57:24.333Z,102945.67
2019-03-21T03:59:54.825Z,102939.61
2019-03-21T04:02:25.316Z,102938.17
2019-03-21T04:04:55.814Z,102938.75
2019-03-21T04:07:26.326Z,102942.80
2019-03-21T04:09:56.875Z,102947.27
2019-03-21T04:12:27.557Z,102951.77
2019-03-21T04:14:58.025Z,102949.79
2019-03-21T04:17:28.433Z,102952.48
2019-03-21T04:19:58.939Z,102947.77
2019-03-21T04:22:29.359Z,102951.70
2019-03-21T04:24:59.938Z,102951.74
2019-03-21T04:27:30.699Z,102953.99
2019-03-21T04:30:01.498Z,102953.50
2019-03-21T04:32:33.198Z,102945.23
2019-03-21T04:35:03.899Z,102943.95
2019-03-21T04:37:35.062Z,102943.95
2019-03-21T04:40:05.945Z,102949.20
2019-03-21T04:42:36.257Z,102951.33
2019-03-21T04:45:09.758Z,102956.13
2019-03-21T04:47:40.198Z,102955.60
2019-03-21T04:50:13.336Z,102946.75
2019-03-21T04:52:43.739Z,102950.50
2019-03-21T04:55:14.839Z,102951.31
2019-03-21T04:57:45.349Z,102951.27
2019-03-21T05:00:21.428Z,102951.44
2019-03-21T05:02:53.158Z,102955.08
2019-03-21T05:05:24.920Z,102955.19
2019-03-21T05:07:57.399Z,102948.30
2019-03-21T05:10:27.849Z,102947.06
2019-03-21T05:12:58.342Z,102955.53
2019-03-21T05:15:31.359Z,102946.02
2019-03-21T05:18:05.373Z,102953.14
2019-03-21T05:20:35.802Z,102956.25
2019-03-21T05:23:06.273Z,102951.41
2019-03-21T05:25:36.762Z,102961.41
2019-03-21T05:28:07.306Z,102963.95
2019-03-21T05:30:41.398Z,102966.92
2019-03-21T05:33:11.890Z,102966.84
2019-03-21T05:35:43.469Z,102971.48
2019-03-21T05:38:15.545Z,102971.83
2019-03-21T05:40:46.527Z,102971.34
2019-03-21T05:43:21.914Z,102977.48
2019-03-21T05:45:52.537Z,102980.10
2019-03-21T05:48:23.018Z,102976.58
2019-03-21T05:50:53.506Z,102977.85
2019-03-21T05:53:24.239Z,102979.20
2019-03-21T05:55:54.809Z,102982.31
2019-03-21T05:58:25.308Z,102982.35
2019-03-21T06:00:56.029Z,102982.87
2019-03-21T06:03:29.828Z,102983.44
2019-03-21T06:06:13.040Z,102984.78
2019-03-21T06:08:43.615Z,102982.98
2019-03-21T06:11:14.110Z,102989.02
2019-03-21T06:13:44.854Z,102991.16
2019-03-21T06:16:15.355Z,102996.33
2019-03-21T06:18:59.786Z,102992.80
2019-03-21T06:21:50.841Z,102992.27
2019-03-21T06:25:10.299Z,102999.20
2019-03-21T06:27:40.695Z,102996.06
2019-03-21T06:30:12.016Z,102994.30
2019-03-21T06:32:42.827Z,103001.23
2019-03-21T06:35:23.261Z,102995.50
2019-03-21T06:37:54.427Z,102999.35
2019-03-21T06:40:24.900Z,102997.06
2019-03-21T06:42:55.463Z,102989.69
2019-03-21T06:45:26.267Z,102994.93
2019-03-21T06:47:56.734Z,102997.97
2019-03-21T06:50:27.356Z,103004.03
2019-03-21T06:52:57.834Z,103004.82
2019-03-21T06:55:29.021Z,103008.19
2019-03-21T06:57:59.547Z,103002.45
2019-03-21T07:00:29.941Z,102998.36
2019-03-21T07:03:01.447Z,103000.83
2019-03-21T07:05:31.973Z,102999.39
2019-03-21T07:08:02.375Z,103003.66
2019-03-21T07:10:32.803Z,103004.92
2019-03-21T07:13:03.353Z,103004.32
2019-03-21T07:15:33.846Z,103005.09
2019-03-21T07:18:04.325Z,103009.77
2019-03-21T07:20:35.206Z,103011.00
2019-03-21T07:23:06.906Z,103008.71
2019-03-21T07:25:37.405Z,103004.64
2019-03-21T07:28:07.883Z,103005.02
2019-03-21T07:30:38.298Z,103006.20
2019-03-21T07:33:08.756Z,103005.17
2019-03-21T07:35:39.157Z,103001.15
2019-03-21T07:38:09.603Z,102999.66
2019-03-21T07:40:40.339Z,102999.00
2019-03-21T07:43:10.901Z,103002.35
2019-03-21T07:45:42.099Z,103002.63
2019-03-21T07:48:12.682Z,103002.86
2019-03-21T07:50:44.428Z,103000.05
2019-03-21T07:53:14.810Z,103002.02
2019-03-21T07:55:45.315Z,102998.29
2019-03-21T07:58:15.849Z,102996.71
2019-03-21T08:00:46.721Z,102994.75
2019-03-21T08:03:17.279Z,102999.81
2019-03-21T08:05:47.816Z,103003.94
2019-03-21T08:08:18.321Z,102999.38
2019-03-21T08:10:49.126Z,103003.15
2019-03-21T08:13:19.712Z,102992.88
2019-03-21T08:15:50.254Z,102999.66
2019-03-21T08:18:21.021Z,102994.22
2019-03-21T08:20:57.275Z,102994.93
2019-03-21T08:23:24.285Z,102996.91
2019-03-21T08:25:54.868Z,102993.13
2019-03-21T08:28:44.197Z,102993.37
2019-03-21T08:33:52.041Z,102989.21
2019-03-21T08:36:23.086Z,102987.81
2019-03-21T08:38:53.682Z,102983.70
2019-03-21T08:41:24.680Z,102990.02
2019-03-21T08:43:55.488Z,102993.77
2019-03-21T08:46:25.983Z,102996.23
2019-03-21T08:48:56.825Z,102994.70
2019-03-21T08:51:27.486Z,102990.61
2019-03-21T08:53:58.304Z,102993.02
2019-03-21T08:56:28.951Z,102984.55
2019-03-21T08:58:59.536Z,102995.28
2019-03-21T09:01:30.045Z,102995.98
2019-03-21T09:04:00.853Z,102997.07
2019-03-21T09:06:31.284Z,102991.14
2019-03-21T09:09:01.729Z,102994.46
2019-03-21T09:11:33.787Z,102984.14
2019-03-21T09:14:05.425Z,102988.30
2019-03-21T09:16:35.894Z,102983.30
2019-03-21T09:19:06.364Z,102987.14
2019-03-21T09:21:37.266Z,102989.20
2019-03-21T09:24:07.765Z,102989.50
2019-03-21T09:26:38.638Z,102987.67
2019-03-21T09:29:09.161Z,102981.36
2019-03-21T09:31:39.683Z,102977.34
2019-03-21T09:34:10.289Z,102985.02
2019-03-21T09:36:41.101Z,102984.80
2019-03-21T09:39:11.623Z,102978.39
2019-03-21T09:41:42.216Z,102982.63
2019-03-21T09:44:13.074Z,102980.23
2019-03-21T09:46:50.820Z,102983.55
2019-03-21T09:49:16.098Z,102978.02
2019-03-21T09:51:46.662Z,102983.81
2019-03-21T09:54:17.151Z,102977.88
2019-03-21T09:56:47.999Z,102975.87
2019-03-21T09:59:18.524Z,102977.87
2019-03-21T10:01:49.011Z,102973.25
2019-03-21T10:04:20.321Z,102973.03
2019-03-21T10:06:50.905Z,102970.46
2019-03-21T10:09:21.237Z,102972.28
2019-03-21T10:11:51.803Z,102968.78
2019-03-21T10:14:22.550Z,102962.80
2019-03-21T10:16:53.153Z,102967.36
2019-03-21T10:19:23.988Z,102963.69
2019-03-21T10:21:54.781Z,102974.10
2019-03-21T10:24:25.566Z,102969.09
2019-03-21T10:26:56.110Z,102971.47
2019-03-21T10:29:26.911Z,102976.77
2019-03-21T10:31:57.452Z,102969.36
2019-03-21T10:34:28.125Z,102970.66
2019-03-21T10:37:00.132Z,102969.20
2019-03-21T10:39:30.894Z,102969.23
2019-03-21T10:42:01.418Z,102967.48
2019-03-21T10:44:32.241Z,102956.02
2019-03-21T10:47:02.992Z,102953.75
2019-03-21T10:49:33.924Z,102958.75
2019-03-21T10:52:04.921Z,102952.35
2019-03-21T10:54:35.404Z,102950.79
2019-03-21T10:57:05.935Z,102946.68
2019-03-21T10:59:36.767Z,102946.73
2019-03-21T11:02:07.769Z,102949.21
2019-03-21T11:04:38.319Z,102946.20
2019-03-21T11:07:06.606Z,102945.76
2019-03-21T11:09:37.020Z,102941.26
2019-03-21T11:12:07.644Z,102941.55
2019-03-21T11:14:39.865Z,102939.84
2019-03-21T11:17:10.341Z,102935.08
2019-03-21T11:19:40.816Z,102931.83
2019-03-21T11:22:11.324Z,102927.52
2019-03-21T11:24:41.808Z,102925.86
2019-03-21T11:27:13.383Z,102925.37
2019-03-21T11:29:44.122Z,102922.13
2019-03-21T11:32:14.557Z,102914.98
2019-03-21T11:34:45.427Z,102913.23
2019-03-21T11:37:16.947Z,102917.20
2019-03-21T11:39:47.678Z,102921.87
2019-03-21T11:42:18.497Z,102909.25
2019-03-21T11:44:49.178Z,102903.73
2019-03-21T11:47:20.167Z,102905.23
2019-03-21T11:49:50.682Z,102895.50
2019-03-21T11:52:21.280Z,102892.70
2019-03-21T11:54:51.975Z,102892.47
2019-03-21T11:57:22.449Z,102892.70
2019-03-21T11:59:52.950Z,102886.65
2019-03-21T12:02:27.473Z,102887.50
2019-03-21T12:04:55.682Z,102890.06
2019-03-21T12:07:26.443Z,102887.42
2019-03-21T12:09:56.850Z,102882.80
2019-03-21T12:12:27.714Z,102885.79
2019-03-21T12:14:59.166Z,102882.51
2019-03-21T12:17:29.611Z,102869.02
2019-03-21T12:20:00.451Z,102874.84
2019-03-21T12:22:31.486Z,102872.48
2019-03-21T12:25:01.914Z,102864.00
2019-03-21T12:27:33.217Z,102861.28
2019-03-21T12:30:04.313Z,102851.61
2019-03-21T12:32:35.143Z,102849.10
2019-03-21T12:35:06.668Z,102842.47
2019-03-21T12:37:37.278Z,102849.55
2019-03-21T12:40:09.386Z,102842.25
2019-03-21T12:42:44.215Z,102845.09
2019-03-21T12:45:20.074Z,102842.21
2019-03-21T12:47:54.849Z,102837.86
2019-03-21T12:50:29.208Z,102838.83
2019-03-21T12:53:01.576Z,102839.78
2019-03-21T12:55:32.817Z,102836.18
2019-03-21T12:58:03.251Z,102830.84
2019-03-21T13:00:38.591Z,102827.66
2019-03-21T13:03:09.225Z,102827.58
2019-03-21T13:05:39.793Z,102829.55
2019-03-21T13:08:10.319Z,102822.81
2019-03-21T13:10:41.106Z,102819.11
2019-03-21T13:13:11.717Z,102820.12
2019-03-21T13:15:42.417Z,102814.08
2019-03-21T13:18:12.919Z,102814.64
2019-03-21T13:20:43.399Z,102814.80
2019-03-21T13:23:14.397Z,102812.57
2019-03-21T13:25:46.230Z,102804.80
2019-03-21T13:28:16.668Z,102805.71
2019-03-21T13:30:47.077Z,102800.42
2019-03-21T13:33:17.809Z,102802.22
2019-03-21T13:35:48.401Z,102794.67
2019-03-21T13:38:18.902Z,102791.86
2019-03-21T13:40:49.348Z,102784.34
2019-03-21T13:43:19.800Z,102780.36
2019-03-21T13:45:50.249Z,102775.17
2019-03-21T13:48:20.691Z,102777.41
2019-03-21T13:50:51.672Z,102775.59
2019-03-21T13:53:22.632Z,102775.84
2019-03-21T13:55:53.474Z,102774.16
2019-03-21T13:58:24.022Z,102766.39
2019-03-21T14:00:54.525Z,102762.20
2019-03-21T14:03:25.568Z,102764.91
2019-03-21T14:05:57.551Z,102758.48
2019-03-21T14:08:28.480Z,102755.14
2019-03-21T14:10:58.956Z,102755.35
2019-03-21T14:13:29.518Z,102753.78
2019-03-21T14:15:59.947Z,102752.23
2019-03-21T14:18:30.362Z,102745.72
2019-03-21T14:21:00.861Z,102736.16
2019-03-21T14:23:42.455Z,102733.81
2019-03-21T14:26:03.604Z,102730.55
2019-03-21T14:28:34.185Z,102741.43
2019-03-21T14:31:04.857Z,102732.81
2019-03-21T14:33:35.443Z,102732.82
2019-03-21T14:36:06.278Z,102726.27
2019-03-21T14:38:37.074Z,102726.27
2019-03-21T14:41:07.674Z,102720.26
2019-03-21T14:43:38.659Z,102718.44
2019-03-21T14:46:09.121Z,102718.63
2019-03-21T14:48:39.654Z,102719.43
2019-03-21T14:51:10.219Z,102719.86
2019-03-21T14:53:40.730Z,102716.56
2019-03-21T14:56:11.143Z,102716.17
2019-03-21T14:58:42.837Z,102711.53
2019-03-21T15:01:13.324Z,102710.09
2019-03-21T15:03:44.323Z,102714.13
2019-03-21T15:06:14.909Z,102712.55
2019-03-21T15:08:46.535Z,102713.42
2019-03-21T15:11:17.665Z,102713.05
2019-03-21T15:13:48.378Z,102720.78
2019-03-21T15:16:18.785Z,102708.80
2019-03-21T15:18:49.647Z,102704.06
2019-03-21T15:21:20.229Z,102699.92
2019-03-21T15:23:59.314Z,102705.23
2019-03-21T15:26:23.275Z,102698.38
2019-03-21T15:28:53.861Z,102683.00
2019-03-21T15:31:24.407Z,102688.70
2019-03-21T15:33:55.078Z,102688.70
2019-03-21T15:36:25.626Z,102684.94
2019-03-21T15:38:56.251Z,102684.20
2019-03-21T15:41:26.795Z,102688.72
2019-03-21T15:44:00.460Z,102688.72
2019-03-21T15:46:32.451Z,102669.09
2019-03-21T15:49:03.367Z,102669.09
2019-03-21T15:51:34.030Z,102662.53
2019-03-21T15:54:27.148Z,102662.53
2019-03-21T15:56:57.732Z,102664.34
2019-03-21T15:59:29.679Z,102665.31
2019-03-21T16:02:00.491Z,102665.31
2019-03-21T16:04:36.367Z,102671.06
2019-03-21T16:07:07.888Z,102664.41
2019-03-21T16:09:45.091Z,102671.66
2019-03-21T16:12:23.281Z,102665.11
2019-03-21T16:14:58.571Z,102672.45
2019-03-21T16:17:31.337Z,102672.45
2019-03-21T16:20:25.447Z,102665.42
2019-03-21T16:23:03.759Z,102665.42
2019-03-21T16:25:42.688Z,102666.42
2019-03-21T16:28:25.378Z,102663.75
2019-03-21T16:31:04.514Z,102663.92
2019-03-21T16:33:43.115Z,102667.81
2019-03-21T16:39:08.805Z,102667.67
2019-03-21T16:41:54.043Z,102666.06
2019-03-21T16:44:48.862Z,102664.19
2019-03-21T16:47:25.721Z,102660.90
2019-03-21T16:50:04.152Z,102656.17
2019-03-21T16:52:42.346Z,102650.04
2019-03-21T16:55:24.142Z,102656.88
2019-03-21T16:58:03.039Z,102657.91
2019-03-21T17:01:06.336Z,102651.61
2019-03-21T17:03:42.171Z,102655.21
2019-03-21T17:06:15.322Z,102653.27
2019-03-21T17:08:54.947Z,102657.37
2019-03-21T17:11:26.912Z,102653.36
2019-03-21T17:14:04.522Z,102659.03
2019-03-21T17:16:39.026Z,102654.86
2019-03-21T17:19:16.345Z,102652.25
2019-03-21T17:21:51.968Z,102656.20
2019-03-21T17:24:38.997Z,102655.98
2019-03-21T17:27:36.022Z,102660.73
2019-03-21T17:30:15.672Z,102663.45
2019-03-21T17:32:51.344Z,102668.56
2019-03-21T17:35:23.280Z,102664.60
2019-03-21T17:38:02.652Z,102665.86
2019-03-21T17:46:21.071Z,102667.91
2019-03-21T17:49:03.648Z,102667.75
2019-03-21T17:51:55.478Z,102669.83
2019-03-21T17:54:40.907Z,102671.80
2019-03-21T17:57:19.635Z,102669.00
2019-03-21T18:00:15.643Z,102673.05
2019-03-21T18:02:50.328Z,102669.84
2019-03-21T18:05:26.549Z,102668.67
2019-03-21T18:07:57.053Z,102669.92
2019-03-21T18:10:36.539Z,102668.64
2019-03-21T18:13:07.188Z,102671.31
2019-03-21T18:15:37.752Z,102679.91
2019-03-21T18:18:08.275Z,102680.86
2019-03-21T18:20:38.985Z,102682.61
2019-03-21T18:23:09.506Z,102680.72
2019-03-21T18:25:40.041Z,102678.83
2019-03-21T18:28:10.637Z,102678.14
2019-03-21T18:30:41.363Z,102679.41
2019-03-21T18:33:11.845Z,102681.11
2019-03-21T18:35:42.469Z,102682.62
2019-03-21T18:38:13.087Z,102691.16
2019-03-21T18:40:43.668Z,102689.96
2019-03-21T18:43:14.672Z,102692.89
2019-03-21T18:45:45.342Z,102694.22
2019-03-21T18:48:16.124Z,102695.56
2019-03-21T18:50:46.554Z,102690.81
2019-03-21T18:53:17.048Z,102689.52
2019-03-21T18:55:47.635Z,102688.17
2019-03-21T18:58:18.169Z,102690.66
2019-03-21T19:00:49.200Z,102689.31
2019-03-21T19:03:20.995Z,102691.13
2019-03-21T19:05:52.000Z,102691.22
2019-03-21T19:08:22.362Z,102699.34
2019-03-21T19:10:53.172Z,102693.77
2019-03-21T19:13:23.713Z,102695.53
2019-03-21T19:15:54.260Z,102695.16
2019-03-21T19:18:24.775Z,102694.18
2019-03-21T19:20:55.657Z,102696.33
2019-03-21T19:23:26.284Z,102705.56
2019-03-21T19:25:56.814Z,102703.26
2019-03-21T19:28:27.322Z,102705.73
2019-03-21T19:30:58.946Z,102705.60
2019-03-21T19:33:29.451Z,102704.62
2019-03-21T19:35:59.959Z,102703.67
2019-03-21T19:38:30.560Z,102707.05
2019-03-21T19:41:01.413Z,102711.73
2019-03-21T19:43:32.042Z,102708.44
2019-03-21T19:46:02.519Z,102705.65
2019-03-21T19:48:34.922Z,102704.11
2019-03-21T19:51:05.896Z,102701.16
2019-03-21T19:53:36.895Z,102705.33
2019-03-21T19:56:08.967Z,102702.93
2019-03-21T19:58:39.979Z,102705.27
2019-03-21T20:01:10.499Z,102702.32
2019-03-21T20:03:41.617Z,102703.07
2019-03-21T20:06:13.371Z,102701.14
2019-03-21T20:08:44.036Z,102702.23
2019-03-21T20:11:15.439Z,102703.34
2019-03-21T20:13:46.164Z,102700.42
2019-03-21T20:16:16.671Z,102701.98
2019-03-21T20:18:47.545Z,102697.79
2019-03-21T20:21:18.085Z,102697.48
2019-03-21T20:23:49.479Z,102705.11
2019-03-21T20:26:21.556Z,102696.90
2019-03-21T20:28:52.530Z,102702.34
2019-03-21T20:31:23.095Z,102699.17
2019-03-21T20:33:53.598Z,102701.04
2019-03-21T20:36:24.034Z,102701.77
2019-03-21T20:38:54.567Z,102705.90
2019-03-21T20:41:25.127Z,102699.60
2019-03-21T20:43:56.633Z,102702.48
2019-03-21T20:46:27.932Z,102707.07
2019-03-21T20:48:56.523Z,102705.67
2019-03-21T20:51:26.983Z,102700.53
2019-03-21T20:53:57.447Z,102697.53
2019-03-21T20:56:27.975Z,102694.66
2019-03-21T20:58:58.794Z,102697.06
2019-03-21T21:01:29.638Z,102699.86
2019-03-21T21:04:00.356Z,102697.76
2019-03-21T21:06:31.759Z,102692.66
2019-03-21T21:09:03.443Z,102691.10
2019-03-21T21:11:35.203Z,102694.83
2019-03-21T21:14:07.138Z,102695.83
2019-03-21T21:16:37.617Z,102697.41
2019-03-21T21:19:08.400Z,102697.80
2019-03-21T21:21:39.833Z,102697.09
2019-03-21T21:24:10.592Z,102689.78
2019-03-21T21:26:41.738Z,102689.16
2019-03-21T21:29:12.129Z,102688.02
2019-03-21T21:31:42.776Z,102682.10
2019-03-21T21:34:13.657Z,102680.08
2019-03-21T21:36:45.160Z,102682.00
2019-03-21T21:39:18.874Z,102681.72
2019-03-21T21:41:49.847Z,102676.12
2019-03-21T21:44:20.337Z,102683.86
2019-03-21T21:46:50.761Z,102679.76
2019-03-21T21:49:21.507Z,102677.27
2019-03-21T21:51:52.025Z,102673.09
2019-03-21T21:54:22.663Z,102674.17
2019-03-21T21:56:53.280Z,102674.70
2019-03-21T21:59:24.196Z,102680.38
2019-03-21T22:01:54.600Z,102677.59
2019-03-21T22:04:25.068Z,102675.80
2019-03-21T22:06:55.852Z,102673.39
2019-03-21T22:09:26.347Z,102673.31
2019-03-21T22:12:00.362Z,102673.36
2019-03-21T22:14:31.247Z,102671.05
2019-03-21T22:17:02.051Z,102671.51
2019-03-21T22:19:32.584Z,102666.16
2019-03-21T22:22:04.527Z,102666.77
2019-03-21T22:24:34.991Z,102673.04
2019-03-21T22:27:05.479Z,102673.68
2019-03-21T22:29:35.920Z,102676.07
2019-03-21T22:32:06.616Z,102670.16
2019-03-21T22:34:37.266Z,102667.30
2019-03-21T22:37:07.777Z,102677.99
2019-03-21T22:39:38.535Z,102674.78
2019-03-21T22:42:09.008Z,102681.98
2019-03-21T22:44:39.510Z,102682.38
2019-03-21T22:47:10.322Z,102676.95
2019-03-21T22:49:40.812Z,102681.95
2019-03-21T22:52:11.219Z,102677.67
2019-03-21T22:54:41.757Z,102673.97
2019-03-21T22:57:12.277Z,102672.11
2019-03-21T22:59:42.742Z,102669.87
2019-03-21T23:02:13.456Z,102661.41
2019-03-21T23:04:43.961Z,102661.56
2019-03-21T23:07:14.755Z,102659.06
2019-03-21T23:09:45.503Z,102650.75
2019-03-21T23:12:15.913Z,102649.04
2019-03-21T23:14:46.685Z,102653.78
2019-03-21T23:17:17.086Z,102653.78
2019-03-21T23:19:48.047Z,102650.83
2019-03-21T23:22:19.099Z,102645.23
2019-03-21T23:24:50.524Z,102646.65
2019-03-21T23:27:21.107Z,102645.55
2019-03-21T23:29:51.728Z,102640.87
2019-03-21T23:32:22.376Z,102645.89
2019-03-21T23:34:53.440Z,102643.58
2019-03-21T23:37:24.245Z,102639.94
2019-03-21T23:39:54.696Z,102642.51
2019-03-21T23:42:25.211Z,102639.38
2019-03-21T23:44:56.697Z,102635.91
2019-03-21T23:47:27.154Z,102636.37
2019-03-21T23:49:57.643Z,102641.72
2019-03-21T23:52:28.250Z,102639.55
2019-03-21T23:54:58.658Z,102637.05
2019-03-21T23:57:29.053Z,102639.30
2019-03-21T23:59:59.615Z,102633.09
